sensor_id;sensor_type;location;lat;lon;timestamp;pressure;altitude;pressure_sealevel;temperature;humidity
60240;BME280;46102;39.012;-7.064;2023-10-08T00:00:25;98907.03;;;24.73;30.01
60240;BME280;46102;39.012;-7.064;2023-10-08T00:02:45;98909.84;;;24.73;30.09
60240;BME280;46102;39.012;-7.064;2023-10-08T00:04:46;98907.44;;;24.75;30.26
60240;BME280;46102;39.012;-7.064;2023-10-08T00:06:46;98912.63;;;24.77;30.12
60240;BME280;46102;39.012;-7.064;2023-10-08T00:08:48;98916.66;;;24.76;30.06
60240;BME280;46102;39.012;-7.064;2023-10-08T00:10:49;98910.63;;;24.73;30.18
60240;BME280;46102;39.012;-7.064;2023-10-08T00:12:49;98914.25;;;24.70;30.65
60240;BME280;46102;39.012;-7.064;2023-10-08T00:14:51;98902.63;;;24.65;30.41
60240;BME280;46102;39.012;-7.064;2023-10-08T00:16:54;98911.47;;;24.60;30.43
60240;BME280;46102;39.012;-7.064;2023-10-08T00:18:54;98909.47;;;24.53;30.97
60240;BME280;46102;39.012;-7.064;2023-10-08T00:21:00;98908.66;;;24.45;31.06
60240;BME280;46102;39.012;-7.064;2023-10-08T00:23:13;98907.84;;;24.38;31.25
60240;BME280;46102;39.012;-7.064;2023-10-08T00:25:17;98912.66;;;24.34;31.02
60240;BME280;46102;39.012;-7.064;2023-10-08T00:27:18;98911.84;;;24.29;31.12
60240;BME280;46102;39.012;-7.064;2023-10-08T00:29:22;98915.06;;;24.24;31.18
60240;BME280;46102;39.012;-7.064;2023-10-08T00:31:23;98917.47;;;24.22;31.21
60240;BME280;46102;39.012;-7.064;2023-10-08T00:33:31;98913.84;;;24.18;31.50
60240;BME280;46102;39.012;-7.064;2023-10-08T00:35:31;98916.66;;;24.15;31.75
60240;BME280;46102;39.012;-7.064;2023-10-08T00:37:33;98917.47;;;24.15;31.80
60240;BME280;46102;39.012;-7.064;2023-10-08T00:39:35;98913.06;;;24.18;31.83
60240;BME280;46102;39.012;-7.064;2023-10-08T00:41:44;98914.69;;;24.19;31.69
60240;BME280;46102;39.012;-7.064;2023-10-08T00:43:45;98914.69;;;24.19;32.00
60240;BME280;46102;39.012;-7.064;2023-10-08T00:45:46;98911.06;;;24.22;31.80
60240;BME280;46102;39.012;-7.064;2023-10-08T00:47:50;98911.03;;;24.18;31.73
60240;BME280;46102;39.012;-7.064;2023-10-08T00:49:55;98917.88;;;24.17;31.88
60240;BME280;46102;39.012;-7.064;2023-10-08T00:52:08;98914.69;;;24.12;32.12
60240;BME280;46102;39.012;-7.064;2023-10-08T00:54:09;98916.66;;;24.04;32.37
60240;BME280;46102;39.012;-7.064;2023-10-08T00:56:11;98908.28;;;24.00;32.53
60240;BME280;46102;39.012;-7.064;2023-10-08T00:58:15;98915.88;;;23.96;32.59
60240;BME280;46102;39.012;-7.064;2023-10-08T01:00:25;98915.06;;;23.92;32.50
60240;BME280;46102;39.012;-7.064;2023-10-08T01:02:33;98921.84;;;23.87;32.67
60240;BME280;46102;39.012;-7.064;2023-10-08T01:04:46;98917.03;;;23.81;32.86
60240;BME280;46102;39.012;-7.064;2023-10-08T01:06:47;98920.22;;;23.76;32.89
60240;BME280;46102;39.012;-7.064;2023-10-08T01:08:51;98917.00;;;23.74;32.93
60240;BME280;46102;39.012;-7.064;2023-10-08T01:10:54;98910.19;;;23.71;33.10
60240;BME280;46102;39.012;-7.064;2023-10-08T01:13:01;98910.56;;;23.66;33.08
60240;BME280;46102;39.012;-7.064;2023-10-08T01:15:02;98913.38;;;23.62;33.12
60240;BME280;46102;39.012;-7.064;2023-10-08T01:17:16;98906.97;;;23.58;33.11
60240;BME280;46102;39.012;-7.064;2023-10-08T01:19:19;98914.16;;;23.56;33.20
60240;BME280;46102;39.012;-7.064;2023-10-08T01:21:20;98914.53;;;23.54;33.42
60240;BME280;46102;39.012;-7.064;2023-10-08T01:23:34;98916.94;;;23.52;33.38
60240;BME280;46102;39.012;-7.064;2023-10-08T01:25:36;98909.34;;;23.49;33.54
60240;BME280;46102;39.012;-7.064;2023-10-08T01:27:37;98913.31;;;23.44;33.59
60240;BME280;46102;39.012;-7.064;2023-10-08T01:29:38;98912.91;;;23.42;33.57
60240;BME280;46102;39.012;-7.064;2023-10-08T01:31:40;98908.50;;;23.41;33.65
60240;BME280;46102;39.012;-7.064;2023-10-08T01:33:40;98916.50;;;23.43;33.67
60240;BME280;46102;39.012;-7.064;2023-10-08T01:35:50;98905.69;;;23.41;33.75
60240;BME280;46102;39.012;-7.064;2023-10-08T01:37:51;98914.91;;;23.42;33.66
60240;BME280;46102;39.012;-7.064;2023-10-08T01:39:53;98908.09;;;23.43;33.40
60240;BME280;46102;39.012;-7.064;2023-10-08T01:41:53;98905.72;;;23.45;33.21
60240;BME280;46102;39.012;-7.064;2023-10-08T01:43:54;98895.34;;;23.49;33.06
60240;BME280;46102;39.012;-7.064;2023-10-08T01:45:56;98898.53;;;23.51;32.95
60240;BME280;46102;39.012;-7.064;2023-10-08T01:47:58;98895.31;;;23.53;33.00
60240;BME280;46102;39.012;-7.064;2023-10-08T01:49:58;98894.53;;;23.52;32.97
60240;BME280;46102;39.012;-7.064;2023-10-08T01:52:06;98897.34;;;23.56;32.87
60240;BME280;46102;39.012;-7.064;2023-10-08T01:54:14;98886.94;;;23.56;32.84
60240;BME280;46102;39.012;-7.064;2023-10-08T01:56:18;98888.53;;;23.57;32.54
60240;BME280;46102;39.012;-7.064;2023-10-08T01:58:19;98886.16;;;23.56;32.04
60240;BME280;46102;39.012;-7.064;2023-10-08T02:00:20;98888.13;;;23.55;31.78
60240;BME280;46102;39.012;-7.064;2023-10-08T02:02:21;98881.34;;;23.53;32.14
60240;BME280;46102;39.012;-7.064;2023-10-08T02:04:22;98887.34;;;23.51;32.38
60240;BME280;46102;39.012;-7.064;2023-10-08T02:06:23;98892.13;;;23.47;33.05
60240;BME280;46102;39.012;-7.064;2023-10-08T02:08:24;98886.50;;;23.43;34.00
60240;BME280;46102;39.012;-7.064;2023-10-08T02:10:26;98884.50;;;23.44;33.95
60240;BME280;46102;39.012;-7.064;2023-10-08T02:12:27;98886.09;;;23.41;34.19
60240;BME280;46102;39.012;-7.064;2023-10-08T02:14:28;98884.13;;;23.42;34.50
60240;BME280;46102;39.012;-7.064;2023-10-08T02:16:32;98883.31;;;23.41;34.47
60240;BME280;46102;39.012;-7.064;2023-10-08T02:18:34;98883.72;;;23.40;34.56
60240;BME280;46102;39.012;-7.064;2023-10-08T02:20:35;98888.13;;;23.37;34.74
60240;BME280;46102;39.012;-7.064;2023-10-08T02:22:36;98886.88;;;23.35;34.95
60240;BME280;46102;39.012;-7.064;2023-10-08T02:24:40;98888.06;;;23.26;35.12
60240;BME280;46102;39.012;-7.064;2023-10-08T02:26:40;98882.06;;;23.24;35.38
60240;BME280;46102;39.012;-7.064;2023-10-08T02:28:42;98880.44;;;23.23;35.50
60240;BME280;46102;39.012;-7.064;2023-10-08T02:30:43;98889.63;;;23.20;35.47
60240;BME280;46102;39.012;-7.064;2023-10-08T02:32:44;98887.63;;;23.17;35.71
60240;BME280;46102;39.012;-7.064;2023-10-08T02:34:46;98889.22;;;23.15;35.89
60240;BME280;46102;39.012;-7.064;2023-10-08T02:36:47;98899.19;;;23.12;35.99
60240;BME280;46102;39.012;-7.064;2023-10-08T02:38:48;98898.41;;;23.08;36.12
60240;BME280;46102;39.012;-7.064;2023-10-08T02:40:50;98898.78;;;23.06;35.96
60240;BME280;46102;39.012;-7.064;2023-10-08T02:42:54;98897.97;;;23.02;36.04
60240;BME280;46102;39.012;-7.064;2023-10-08T02:44:58;98897.09;;;22.98;36.38
60240;BME280;46102;39.012;-7.064;2023-10-08T02:47:01;98894.72;;;22.97;36.20
60240;BME280;46102;39.012;-7.064;2023-10-08T02:49:02;98893.88;;;22.96;36.45
60240;BME280;46102;39.012;-7.064;2023-10-08T02:51:04;98894.69;;;22.93;36.61
60240;BME280;46102;39.012;-7.064;2023-10-08T02:53:15;98887.88;;;22.91;36.60
60240;BME280;46102;39.012;-7.064;2023-10-08T02:55:21;98886.25;;;22.86;36.70
60240;BME280;46102;39.012;-7.064;2023-10-08T02:57:36;98881.06;;;22.84;37.04
60240;BME280;46102;39.012;-7.064;2023-10-08T02:59:38;98887.44;;;22.81;37.11
60240;BME280;46102;39.012;-7.064;2023-10-08T03:01:42;98889.81;;;22.79;37.20
60240;BME280;46102;39.012;-7.064;2023-10-08T03:03:43;98886.19;;;22.75;37.12
60240;BME280;46102;39.012;-7.064;2023-10-08T03:05:51;98881.78;;;22.71;37.36
60240;BME280;46102;39.012;-7.064;2023-10-08T03:07:52;98882.56;;;22.68;37.32
60240;BME280;46102;39.012;-7.064;2023-10-08T03:09:53;98887.34;;;22.67;37.28
60240;BME280;46102;39.012;-7.064;2023-10-08T03:12:17;98879.38;;;22.69;37.02
60240;BME280;46102;39.012;-7.064;2023-10-08T03:14:19;98886.13;;;22.64;37.31
60240;BME280;46102;39.012;-7.064;2023-10-08T03:16:22;98887.72;;;22.62;37.01
60240;BME280;46102;39.012;-7.064;2023-10-08T03:18:29;98888.88;;;22.57;37.23
60240;BME280;46102;39.012;-7.064;2023-10-08T03:20:37;98886.06;;;22.54;37.01
60240;BME280;46102;39.012;-7.064;2023-10-08T03:22:44;98882.06;;;22.51;36.78
60240;BME280;46102;39.012;-7.064;2023-10-08T03:24:46;98890.84;;;22.50;36.64
60240;BME280;46102;39.012;-7.064;2023-10-08T03:26:49;98888.84;;;22.50;36.24
60240;BME280;46102;39.012;-7.064;2023-10-08T03:28:56;98882.47;;;22.53;36.16
60240;BME280;46102;39.012;-7.064;2023-10-08T03:30:59;98891.28;;;22.55;36.18
60240;BME280;46102;39.012;-7.064;2023-10-08T03:33:04;98892.06;;;22.56;36.17
60240;BME280;46102;39.012;-7.064;2023-10-08T03:35:10;98892.88;;;22.56;36.12
60240;BME280;46102;39.012;-7.064;2023-10-08T03:37:21;98888.09;;;22.57;36.11
60240;BME280;46102;39.012;-7.064;2023-10-08T03:39:29;98890.09;;;22.56;36.07
60240;BME280;46102;39.012;-7.064;2023-10-08T03:41:50;98891.28;;;22.55;36.00
60240;BME280;46102;39.012;-7.064;2023-10-08T03:44:07;98892.06;;;22.56;35.75
60240;BME280;46102;39.012;-7.064;2023-10-08T03:46:14;98895.66;;;22.53;35.84
60240;BME280;46102;39.012;-7.064;2023-10-08T03:48:15;98889.59;;;22.47;35.94
60240;BME280;46102;39.012;-7.064;2023-10-08T03:50:17;98890.81;;;22.46;35.36
60240;BME280;46102;39.012;-7.064;2023-10-08T03:52:18;98890.38;;;22.40;35.13
60240;BME280;46102;39.012;-7.064;2023-10-08T03:54:26;98889.56;;;22.40;34.87
60240;BME280;46102;39.012;-7.064;2023-10-08T03:56:36;98889.56;;;22.36;34.39
60240;BME280;46102;39.012;-7.064;2023-10-08T03:58:37;98891.94;;;22.34;34.03
60240;BME280;46102;39.012;-7.064;2023-10-08T04:00:46;98894.31;;;22.36;33.85
60240;BME280;46102;39.012;-7.064;2023-10-08T04:02:47;98899.53;;;22.34;34.09
60240;BME280;46102;39.012;-7.064;2023-10-08T04:04:55;98897.09;;;22.32;34.15
60240;BME280;46102;39.012;-7.064;2023-10-08T04:06:58;98899.47;;;22.30;34.10
60240;BME280;46102;39.012;-7.064;2023-10-08T04:09:19;98901.84;;;22.28;34.17
60240;BME280;46102;39.012;-7.064;2023-10-08T04:11:25;98898.63;;;22.22;34.29
60240;BME280;46102;39.012;-7.064;2023-10-08T04:13:32;98898.19;;;22.20;34.41
60240;BME280;46102;39.012;-7.064;2023-10-08T04:15:33;98901.72;;;22.17;34.89
60240;BME280;46102;39.012;-7.064;2023-10-08T04:17:35;98897.31;;;22.13;35.10
60240;BME280;46102;39.012;-7.064;2023-10-08T04:19:45;98902.47;;;22.07;35.41
60240;BME280;46102;39.012;-7.064;2023-10-08T04:21:46;98914.38;;;22.04;35.44
60240;BME280;46102;39.012;-7.064;2023-10-08T04:23:54;98910.38;;;22.01;35.57
60240;BME280;46102;39.012;-7.064;2023-10-08T04:25:58;98913.97;;;22.02;35.57
60240;BME280;46102;39.012;-7.064;2023-10-08T04:28:00;98916.75;;;21.98;35.48
60240;BME280;46102;39.012;-7.064;2023-10-08T04:30:01;98917.53;;;21.95;35.50
60240;BME280;46102;39.012;-7.064;2023-10-08T04:32:02;98919.84;;;21.90;35.66
60240;BME280;46102;39.012;-7.064;2023-10-08T04:34:08;98922.22;;;21.88;35.74
60240;BME280;46102;39.012;-7.064;2023-10-08T04:36:17;98921.38;;;21.83;35.75
60240;BME280;46102;39.012;-7.064;2023-10-08T04:38:23;98922.13;;;21.77;35.55
60240;BME280;46102;39.012;-7.064;2023-10-08T04:40:26;98923.25;;;21.72;35.92
60240;BME280;46102;39.012;-7.064;2023-10-08T04:42:26;98926.47;;;21.71;36.08
60240;BME280;46102;39.012;-7.064;2023-10-08T04:44:27;98916.03;;;21.68;35.76
60240;BME280;46102;39.012;-7.064;2023-10-08T04:46:32;98922.41;;;21.65;35.98
60240;BME280;46102;39.012;-7.064;2023-10-08T04:48:39;98921.59;;;21.64;35.65
60240;BME280;46102;39.012;-7.064;2023-10-08T04:50:44;98931.91;;;21.60;35.81
60240;BME280;46102;39.012;-7.064;2023-10-08T04:52:45;98922.31;;;21.57;35.82
60240;BME280;46102;39.012;-7.064;2023-10-08T04:54:58;98931.06;;;21.56;36.23
60240;BME280;46102;39.012;-7.064;2023-10-08T04:57:08;98924.66;;;21.52;36.23
60240;BME280;46102;39.012;-7.064;2023-10-08T04:59:16;98925.78;;;21.47;36.07
60240;BME280;46102;39.012;-7.064;2023-10-08T05:01:21;98934.13;;;21.44;35.83
60240;BME280;46102;39.012;-7.064;2023-10-08T05:03:29;98932.50;;;21.42;35.87
60240;BME280;46102;39.012;-7.064;2023-10-08T05:05:44;98930.09;;;21.41;35.88
60240;BME280;46102;39.012;-7.064;2023-10-08T05:08:05;98944.00;;;21.37;35.84
60240;BME280;46102;39.012;-7.064;2023-10-08T05:10:32;98930.78;;;21.34;35.72
60240;BME280;46102;39.012;-7.064;2023-10-08T05:12:45;98932.41;;;21.35;36.12
60240;BME280;46102;39.012;-7.064;2023-10-08T05:15:02;98939.91;;;21.31;35.79
60240;BME280;46102;39.012;-7.064;2023-10-08T05:17:14;98937.50;;;21.30;36.10
60240;BME280;46102;39.012;-7.064;2023-10-08T05:19:18;98937.13;;;21.31;35.98
60240;BME280;46102;39.012;-7.064;2023-10-08T05:21:37;98935.13;;;21.32;35.54
60240;BME280;46102;39.012;-7.064;2023-10-08T05:23:52;98935.13;;;21.32;35.75
60240;BME280;46102;39.012;-7.064;2023-10-08T05:26:13;98932.34;;;21.32;35.85
60240;BME280;46102;39.012;-7.064;2023-10-08T05:28:21;98938.31;;;21.30;36.06
60240;BME280;46102;39.012;-7.064;2023-10-08T05:30:26;98935.53;;;21.30;35.99
60240;BME280;46102;39.012;-7.064;2023-10-08T05:32:55;98934.72;;;21.30;35.94
60240;BME280;46102;39.012;-7.064;2023-10-08T05:35:14;98930.38;;;21.32;35.67
60240;BME280;46102;39.012;-7.064;2023-10-08T05:37:33;98940.34;;;21.33;35.62
60240;BME280;46102;39.012;-7.064;2023-10-08T05:39:42;98935.97;;;21.32;35.62
60240;BME280;46102;39.012;-7.064;2023-10-08T05:41:47;98941.94;;;21.34;35.79
60240;BME280;46102;39.012;-7.064;2023-10-08T05:44:13;98939.16;;;21.34;35.68
60240;BME280;46102;39.012;-7.064;2023-10-08T05:46:19;98935.56;;;21.34;36.04
60240;BME280;46102;39.012;-7.064;2023-10-08T05:48:23;98934.78;;;21.33;35.80
60240;BME280;46102;39.012;-7.064;2023-10-08T05:50:28;98940.72;;;21.32;35.75
60240;BME280;46102;39.012;-7.064;2023-10-08T05:52:39;98937.13;;;21.31;35.66
60240;BME280;46102;39.012;-7.064;2023-10-08T05:54:59;98935.53;;;21.30;35.93
60240;BME280;46102;39.012;-7.064;2023-10-08T05:57:23;98943.13;;;21.33;35.67
60240;BME280;46102;39.012;-7.064;2023-10-08T05:59:41;98944.72;;;21.31;35.71
60240;BME280;46102;39.012;-7.064;2023-10-08T06:02:13;98949.09;;;21.32;36.18
60240;BME280;46102;39.012;-7.064;2023-10-08T06:04:32;98952.66;;;21.29;36.00
60240;BME280;46102;39.012;-7.064;2023-10-08T06:06:51;98955.81;;;21.27;36.07
60240;BME280;46102;39.012;-7.064;2023-10-08T06:09:12;98965.75;;;21.25;36.24
60240;BME280;46102;39.012;-7.064;2023-10-08T06:11:13;98958.56;;;21.24;36.50
60240;BME280;46102;39.012;-7.064;2023-10-08T06:13:27;98964.53;;;21.22;36.30
60240;BME280;46102;39.012;-7.064;2023-10-08T06:15:46;98963.28;;;21.19;36.17
60240;BME280;46102;39.012;-7.064;2023-10-08T06:17:56;98968.81;;;21.16;36.81
60240;BME280;46102;39.012;-7.064;2023-10-08T06:20:05;98968.00;;;21.15;36.82
60240;BME280;46102;39.012;-7.064;2023-10-08T06:22:10;98970.00;;;21.15;36.49
60240;BME280;46102;39.012;-7.064;2023-10-08T06:24:11;98973.59;;;21.15;37.00
60240;BME280;46102;39.012;-7.064;2023-10-08T06:26:17;98973.22;;;21.17;36.80
60240;BME280;46102;39.012;-7.064;2023-10-08T06:28:21;98978.38;;;21.15;36.97
60240;BME280;46102;39.012;-7.064;2023-10-08T06:30:25;98976.00;;;21.17;36.94
60240;BME280;46102;39.012;-7.064;2023-10-08T06:32:29;98981.16;;;21.15;37.06
60240;BME280;46102;39.012;-7.064;2023-10-08T06:34:31;98983.53;;;21.13;37.37
60240;BME280;46102;39.012;-7.064;2023-10-08T06:36:31;98989.09;;;21.13;37.20
60240;BME280;46102;39.012;-7.064;2023-10-08T06:38:33;98981.91;;;21.12;37.31
60240;BME280;46102;39.012;-7.064;2023-10-08T06:40:34;98988.75;;;21.14;37.24
60240;BME280;46102;39.012;-7.064;2023-10-08T06:42:38;98993.47;;;21.14;37.56
60240;BME280;46102;39.012;-7.064;2023-10-08T06:44:39;98991.53;;;21.14;37.37
60240;BME280;46102;39.012;-7.064;2023-10-08T06:46:42;98991.13;;;21.16;37.66
60240;BME280;46102;39.012;-7.064;2023-10-08T06:48:42;98996.34;;;21.17;37.72
60240;BME280;46102;39.012;-7.064;2023-10-08T06:50:44;98999.59;;;21.23;37.16
60240;BME280;46102;39.012;-7.064;2023-10-08T06:52:45;99002.88;;;21.29;37.47
60240;BME280;46102;39.012;-7.064;2023-10-08T06:54:46;99003.75;;;21.36;37.06
60240;BME280;46102;39.012;-7.064;2023-10-08T06:56:47;99004.34;;;21.49;36.97
60240;BME280;46102;39.012;-7.064;2023-10-08T06:58:52;99004.91;;;21.62;36.85
60240;BME280;46102;39.012;-7.064;2023-10-08T07:00:53;98999.19;;;21.85;36.82
60240;BME280;46102;39.012;-7.064;2023-10-08T07:02:55;99009.31;;;22.38;35.74
60240;BME280;46102;39.012;-7.064;2023-10-08T07:04:56;98997.63;;;23.32;34.20
60240;BME280;46102;39.012;-7.064;2023-10-08T07:06:57;99000.34;;;24.23;32.83
60240;BME280;46102;39.012;-7.064;2023-10-08T07:09:01;99002.34;;;25.23;31.47
60240;BME280;46102;39.012;-7.064;2023-10-08T07:11:05;98997.84;;;26.28;29.59
60240;BME280;46102;39.012;-7.064;2023-10-08T07:13:07;99006.91;;;26.99;28.72
60240;BME280;46102;39.012;-7.064;2023-10-08T07:15:09;99003.56;;;27.49;27.94
60240;BME280;46102;39.012;-7.064;2023-10-08T07:17:12;99007.34;;;28.04;27.02
60240;BME280;46102;39.012;-7.064;2023-10-08T07:19:21;99002.97;;;28.54;26.07
60240;BME280;46102;39.012;-7.064;2023-10-08T07:21:24;99003.22;;;28.86;25.60
60240;BME280;46102;39.012;-7.064;2023-10-08T07:23:30;99009.59;;;28.91;25.41
60240;BME280;46102;39.012;-7.064;2023-10-08T07:25:35;99010.03;;;29.13;25.20
60240;BME280;46102;39.012;-7.064;2023-10-08T07:27:38;99007.53;;;29.58;24.33
60240;BME280;46102;39.012;-7.064;2023-10-08T07:29:39;99018.13;;;29.74;24.36
60240;BME280;46102;39.012;-7.064;2023-10-08T07:31:40;99023.53;;;29.65;24.48
60240;BME280;46102;39.012;-7.064;2023-10-08T07:33:43;99028.34;;;29.48;24.69
60240;BME280;46102;39.012;-7.064;2023-10-08T07:35:47;99017.84;;;29.88;23.73
60240;BME280;46102;39.012;-7.064;2023-10-08T07:38:12;99023.50;;;30.41;23.76
60240;BME280;46102;39.012;-7.064;2023-10-08T07:40:13;99029.72;;;30.36;23.12
60240;BME280;46102;39.012;-7.064;2023-10-08T07:42:15;99031.03;;;30.32;23.36
60240;BME280;46102;39.012;-7.064;2023-10-08T07:44:16;99031.06;;;30.81;23.37
60240;BME280;46102;39.012;-7.064;2023-10-08T07:46:18;99042.47;;;31.10;22.45
60240;BME280;46102;39.012;-7.064;2023-10-08T07:48:19;99036.50;;;31.21;22.53
60240;BME280;46102;39.012;-7.064;2023-10-08T07:50:20;99050.66;;;31.21;22.91
60240;BME280;46102;39.012;-7.064;2023-10-08T07:52:20;99048.41;;;30.99;23.37
60240;BME280;46102;39.012;-7.064;2023-10-08T07:54:22;99049.88;;;30.55;24.05
60240;BME280;46102;39.012;-7.064;2023-10-08T07:56:24;99054.78;;;29.98;24.40
60240;BME280;46102;39.012;-7.064;2023-10-08T07:58:25;99050.94;;;29.48;25.45
60240;BME280;46102;39.012;-7.064;2023-10-08T08:00:27;99061.03;;;29.02;25.64
60240;BME280;46102;39.012;-7.064;2023-10-08T08:02:31;99062.16;;;28.57;26.41
60240;BME280;46102;39.012;-7.064;2023-10-08T08:04:32;99067.34;;;28.32;26.87
60240;BME280;46102;39.012;-7.064;2023-10-08T08:06:33;99070.16;;;28.05;27.31
60240;BME280;46102;39.012;-7.064;2023-10-08T08:08:37;99066.88;;;27.72;27.96
60240;BME280;46102;39.012;-7.064;2023-10-08T08:10:38;99070.34;;;27.52;28.06
60240;BME280;46102;39.012;-7.064;2023-10-08T08:12:40;99070.88;;;27.40;28.35
60240;BME280;46102;39.012;-7.064;2023-10-08T08:14:40;99073.81;;;27.29;28.54
60240;BME280;46102;39.012;-7.064;2023-10-08T08:16:44;99074.63;;;27.26;28.69
60240;BME280;46102;39.012;-7.064;2023-10-08T08:18:50;99074.69;;;27.23;28.60
60240;BME280;46102;39.012;-7.064;2023-10-08T08:20:52;99081.53;;;27.18;28.79
60240;BME280;46102;39.012;-7.064;2023-10-08T08:22:53;99081.53;;;27.18;28.85
60240;BME280;46102;39.012;-7.064;2023-10-08T08:24:54;99080.28;;;27.26;28.60
60240;BME280;46102;39.012;-7.064;2023-10-08T08:26:56;99081.41;;;27.36;28.73
60240;BME280;46102;39.012;-7.064;2023-10-08T08:29:11;99088.47;;;27.51;28.50
60240;BME280;46102;39.012;-7.064;2023-10-08T08:31:15;99081.16;;;27.57;28.50
60240;BME280;46102;39.012;-7.064;2023-10-08T08:33:16;99086.41;;;27.55;28.16
60240;BME280;46102;39.012;-7.064;2023-10-08T08:35:22;99085.31;;;27.46;28.36
60240;BME280;46102;39.012;-7.064;2023-10-08T08:37:24;99090.91;;;27.49;28.03
60240;BME280;46102;39.012;-7.064;2023-10-08T08:39:30;99094.03;;;27.58;27.95
60240;BME280;46102;39.012;-7.064;2023-10-08T08:41:32;99093.91;;;27.69;27.83
60240;BME280;46102;39.012;-7.064;2023-10-08T08:43:38;99090.09;;;27.87;27.62
60240;BME280;46102;39.012;-7.064;2023-10-08T08:45:45;99086.78;;;27.95;27.67
60240;BME280;46102;39.012;-7.064;2023-10-08T08:47:50;99089.41;;;28.10;27.53
60240;BME280;46102;39.012;-7.064;2023-10-08T08:49:52;99098.09;;;28.22;27.31
60240;BME280;46102;39.012;-7.064;2023-10-08T08:51:56;99096.34;;;28.32;27.32
60240;BME280;46102;39.012;-7.064;2023-10-08T08:54:05;99100.28;;;28.38;26.86
60240;BME280;46102;39.012;-7.064;2023-10-08T08:56:09;99098.59;;;28.44;26.39
60240;BME280;46102;39.012;-7.064;2023-10-08T08:58:10;99090.97;;;28.41;26.48
60240;BME280;46102;39.012;-7.064;2023-10-08T09:00:13;99099.91;;;28.36;26.64
60240;BME280;46102;39.012;-7.064;2023-10-08T09:02:15;99088.34;;;28.31;26.75
60240;BME280;46102;39.012;-7.064;2023-10-08T09:04:16;99093.16;;;28.30;26.18
60240;BME280;46102;39.012;-7.064;2023-10-08T09:06:17;99096.69;;;28.38;26.21
60240;BME280;46102;39.012;-7.064;2023-10-08T09:08:18;99095.75;;;28.48;25.91
60240;BME280;46102;39.012;-7.064;2023-10-08T09:10:19;99102.88;;;28.56;25.30
60240;BME280;46102;39.012;-7.064;2023-10-08T09:12:20;99094.28;;;28.67;24.85
60240;BME280;46102;39.012;-7.064;2023-10-08T09:14:23;99105.31;;;28.81;24.29
60240;BME280;46102;39.012;-7.064;2023-10-08T09:16:25;99098.03;;;28.84;24.13
60240;BME280;46102;39.012;-7.064;2023-10-08T09:18:27;99100.66;;;28.95;24.33
60240;BME280;46102;39.012;-7.064;2023-10-08T09:20:29;99101.69;;;29.08;23.76
60240;BME280;46102;39.012;-7.064;2023-10-08T09:22:32;99097.03;;;29.21;23.29
60240;BME280;46102;39.012;-7.064;2023-10-08T09:24:34;99098.00;;;29.35;23.00
60240;BME280;46102;39.012;-7.064;2023-10-08T09:26:37;99099.75;;;29.48;22.83
60240;BME280;46102;39.012;-7.064;2023-10-08T09:28:38;99099.56;;;29.59;23.07
60240;BME280;46102;39.012;-7.064;2023-10-08T09:30:42;99094.38;;;29.78;22.46
60240;BME280;46102;39.012;-7.064;2023-10-08T09:32:47;99097.78;;;29.89;22.68
60240;BME280;46102;39.012;-7.064;2023-10-08T09:34:50;99094.75;;;30.00;22.23
60240;BME280;46102;39.012;-7.064;2023-10-08T09:36:52;99094.66;;;30.03;22.38
60240;BME280;46102;39.012;-7.064;2023-10-08T09:38:54;99093.22;;;30.15;22.48
60240;BME280;46102;39.012;-7.064;2023-10-08T09:40:57;99090.13;;;30.26;22.24
60240;BME280;46102;39.012;-7.064;2023-10-08T09:42:59;99100.34;;;30.40;21.46
60240;BME280;46102;39.012;-7.064;2023-10-08T09:44:59;99093.47;;;30.57;21.63
60240;BME280;46102;39.012;-7.064;2023-10-08T09:47:06;99099.09;;;30.77;21.59
60240;BME280;46102;39.012;-7.064;2023-10-08T09:49:08;99096.81;;;31.05;21.82
60240;BME280;46102;39.012;-7.064;2023-10-08T09:51:13;99096.47;;;31.19;21.29
60240;BME280;46102;39.012;-7.064;2023-10-08T09:53:15;99102.09;;;31.36;21.05
60240;BME280;46102;39.012;-7.064;2023-10-08T09:55:18;99100.78;;;31.24;21.25
60240;BME280;46102;39.012;-7.064;2023-10-08T09:57:19;99101.66;;;31.21;21.49
60240;BME280;46102;39.012;-7.064;2023-10-08T09:59:21;99097.25;;;31.20;21.57
60240;BME280;46102;39.012;-7.064;2023-10-08T10:01:22;99103.63;;;31.24;21.58
60240;BME280;46102;39.012;-7.064;2023-10-08T10:03:25;99103.06;;;31.29;21.65
60240;BME280;46102;39.012;-7.064;2023-10-08T10:05:32;99099.78;;;31.47;21.77
60240;BME280;46102;39.012;-7.064;2023-10-08T10:07:35;99107.56;;;31.59;21.51
60240;BME280;46102;39.012;-7.064;2023-10-08T10:09:35;99105.88;;;31.62;21.71
60240;BME280;46102;39.012;-7.064;2023-10-08T10:11:37;99098.53;;;31.77;21.73
60240;BME280;46102;39.012;-7.064;2023-10-08T10:13:50;99090.72;;;31.81;21.69
60240;BME280;46102;39.012;-7.064;2023-10-08T10:16:00;99091.44;;;31.85;21.68
60240;BME280;46102;39.012;-7.064;2023-10-08T10:18:27;99097.09;;;31.85;21.78
60240;BME280;46102;39.012;-7.064;2023-10-08T10:20:31;99099.28;;;31.94;21.70
60240;BME280;46102;39.012;-7.064;2023-10-08T10:22:34;99098.56;;;32.19;21.87
60240;BME280;46102;39.012;-7.064;2023-10-08T10:24:36;99096.66;;;32.29;21.60
60240;BME280;46102;39.012;-7.064;2023-10-08T10:26:42;99101.78;;;32.34;21.49
60240;BME280;46102;39.012;-7.064;2023-10-08T10:31:19;99091.69;;;32.46;21.47
60240;BME280;46102;39.012;-7.064;2023-10-08T10:33:20;99088.88;;;32.59;21.20
60240;BME280;46102;39.012;-7.064;2023-10-08T10:35:21;99089.78;;;32.68;21.27
60240;BME280;46102;39.012;-7.064;2023-10-08T10:37:24;99081.91;;;32.85;21.46
60240;BME280;46102;39.012;-7.064;2023-10-08T10:39:26;99081.56;;;32.96;20.85
60240;BME280;46102;39.012;-7.064;2023-10-08T10:41:27;99080.09;;;33.17;20.69
60240;BME280;46102;39.012;-7.064;2023-10-08T10:43:28;99077.09;;;33.21;20.74
60240;BME280;46102;39.012;-7.064;2023-10-08T10:45:33;99077.25;;;33.17;20.70
60240;BME280;46102;39.012;-7.064;2023-10-08T10:47:37;99074.50;;;33.13;21.00
60240;BME280;46102;39.012;-7.064;2023-10-08T10:49:49;99074.25;;;33.21;20.73
60240;BME280;46102;39.012;-7.064;2023-10-08T10:52:16;99075.44;;;33.45;20.88
60240;BME280;46102;39.012;-7.064;2023-10-08T10:54:26;99075.81;;;33.69;20.07
60240;BME280;46102;39.012;-7.064;2023-10-08T10:56:36;99072.09;;;33.82;19.96